aviador You're here:

KUZA Decoded Metar

ROCK HILL in SC, USA
Report Time2017-11-23 19:54:00
UTC Time2017-11-23 20:34:15
Flight Rules vfr VFR
WindCalm
Visibility9999 m
Phenomena:N/A
Clouds:N/A
Expected CloudBase > 5,600 ft AGL from Temp-Dew spread
CeilingNone
Temp13°C (ISA -1)
Dew Point-1°C (38% RH)
AAT10.9°C
QNH1017 hPa
Density Alt528 ft
Elevation663 ft
Report Wrong Elevation
Raw Report
KUZA 231954Z AUTO 00000KT 10SM CLR 13/M01 A3004 RMK AO2 SLP172
T01331011=

Extra information for KUZA:More info

Metar Taf Metar & Taf Last 4 Metars F.Rules Stats Wind Profile Meteogram Temp Stats Airport Information Weather charts Add Link Nearby VenuesMetar ALERT Operation Metar Decoded Social comments

AIRNAV info for KUZA